sensor_id;sensor_type;location;lat;lon;timestamp;pressure;altitude;pressure_sealevel;temperature;humidity
71976;BME280;68326;52.124;5.424;2023-06-22T00:01:20;101989.22;;;17.32;95.30
71976;BME280;68326;52.124;5.424;2023-06-22T00:03:47;101980.75;;;17.27;95.30
71976;BME280;68326;52.124;5.424;2023-06-22T00:06:14;101985.25;;;17.25;95.55
71976;BME280;68326;52.124;5.424;2023-06-22T00:08:41;101985.38;;;17.24;96.30
71976;BME280;68326;52.124;5.424;2023-06-22T00:11:07;101989.59;;;17.26;96.05
71976;BME280;68326;52.124;5.424;2023-06-22T00:13:34;101996.44;;;17.29;96.33
71976;BME280;68326;52.124;5.424;2023-06-22T00:16:01;101987.72;;;17.28;95.99
71976;BME280;68326;52.124;5.424;2023-06-22T00:18:27;101987.03;;;17.25;96.39
71976;BME280;68326;52.124;5.424;2023-06-22T00:20:57;101985.38;;;17.24;96.39
71976;BME280;68326;52.124;5.424;2023-06-22T00:23:25;101985.66;;;17.19;96.61
71976;BME280;68326;52.124;5.424;2023-06-22T00:25:52;101993.97;;;17.11;95.85
71976;BME280;68326;52.124;5.424;2023-06-22T00:28:19;101991.44;;;17.10;96.35
71976;BME280;68326;52.124;5.424;2023-06-22T00:30:45;101981.19;;;17.05;96.08
71976;BME280;68326;52.124;5.424;2023-06-22T00:33:12;101976.88;;;17.04;96.38
71976;BME280;68326;52.124;5.424;2023-06-22T00:35:38;101973.59;;;17.01;95.41
71976;BME280;68326;52.124;5.424;2023-06-22T00:38:07;101969.44;;;16.97;96.02
71976;BME280;68326;52.124;5.424;2023-06-22T00:40:34;101973.94;;;16.95;95.85
71976;BME280;68326;52.124;5.424;2023-06-22T00:43:01;101965.09;;;16.96;96.88
71976;BME280;68326;52.124;5.424;2023-06-22T00:45:28;101967.94;;;16.92;96.78
71976;BME280;68326;52.124;5.424;2023-06-22T00:47:58;101966.13;;;16.93;96.15
71976;BME280;68326;52.124;5.424;2023-06-22T00:50:27;101965.22;;;16.94;97.03
71976;BME280;68326;52.124;5.424;2023-06-22T00:52:56;101961.72;;;16.94;96.50
71976;BME280;68326;52.124;5.424;2023-06-22T00:55:23;101970.91;;;16.86;96.14
71976;BME280;68326;52.124;5.424;2023-06-22T00:57:50;101972.97;;;16.81;96.49
71976;BME280;68326;52.124;5.424;2023-06-22T01:00:17;101968.69;;;16.79;96.44
71976;BME280;68326;52.124;5.424;2023-06-22T01:02:46;101962.13;;;16.71;96.41
71976;BME280;68326;52.124;5.424;2023-06-22T01:05:14;101961.84;;;16.76;96.30
71976;BME280;68326;52.124;5.424;2023-06-22T01:10:41;101956.41;;;16.79;96.28
71976;BME280;68326;52.124;5.424;2023-06-22T01:13:21;101968.06;;;16.75;96.47
71976;BME280;68326;52.124;5.424;2023-06-22T01:16:05;101975.44;;;16.68;96.68
71976;BME280;68326;52.124;5.424;2023-06-22T01:18:35;101977.06;;;16.55;97.15
71976;BME280;68326;52.124;5.424;2023-06-22T01:21:05;101979.13;;;16.50;97.40
71976;BME280;68326;52.124;5.424;2023-06-22T01:26:13;101957.56;;;16.59;98.35
71976;BME280;68326;52.124;5.424;2023-06-22T01:28:53;101943.66;;;16.57;97.27
71976;BME280;68326;52.124;5.424;2023-06-22T01:31:23;101958.94;;;16.50;96.50
71976;BME280;68326;52.124;5.424;2023-06-22T01:33:57;101959.28;;;16.44;97.08
71976;BME280;68326;52.124;5.424;2023-06-22T01:36:25;101952.88;;;16.34;97.29
71976;BME280;68326;52.124;5.424;2023-06-22T01:38:53;101962.72;;;16.30;97.35
71976;BME280;68326;52.124;5.424;2023-06-22T01:41:20;101967.47;;;16.24;96.89
71976;BME280;68326;52.124;5.424;2023-06-22T01:43:48;101957.97;;;16.21;97.00
71976;BME280;68326;52.124;5.424;2023-06-22T01:46:15;101965.34;;;16.15;96.62
71976;BME280;68326;52.124;5.424;2023-06-22T01:48:42;101958.84;;;16.06;96.95
71976;BME280;68326;52.124;5.424;2023-06-22T01:51:09;101954.53;;;16.05;97.70
71976;BME280;68326;52.124;5.424;2023-06-22T01:53:36;101950.13;;;16.05;98.07
71976;BME280;68326;52.124;5.424;2023-06-22T01:56:02;101949.84;;;16.10;98.32
71976;BME280;68326;52.124;5.424;2023-06-22T01:58:30;101946.47;;;16.08;98.06
71976;BME280;68326;52.124;5.424;2023-06-22T02:01:10;101952.75;;;16.05;97.74
71976;BME280;68326;52.124;5.424;2023-06-22T02:04:44;101954.78;;;16.00;97.49
71976;BME280;68326;52.124;5.424;2023-06-22T02:06:42;101946.81;;;16.02;98.10
71976;BME280;68326;52.124;5.424;2023-06-22T02:09:16;101944.19;;;16.02;97.91
71976;BME280;68326;52.124;5.424;2023-06-22T02:11:45;101946.72;;;16.03;97.86
71976;BME280;68326;52.124;5.424;2023-06-22T02:14:13;101938.94;;;16.02;98.07
71976;BME280;68326;52.124;5.424;2023-06-22T02:16:40;101946.16;;;15.98;97.64
71976;BME280;68326;52.124;5.424;2023-06-22T02:19:07;101942.00;;;15.94;98.14
71976;BME280;68326;52.124;5.424;2023-06-22T02:21:34;101944.97;;;15.88;98.26
71976;BME280;68326;52.124;5.424;2023-06-22T02:24:01;101944.19;;;15.86;97.83
71976;BME280;68326;52.124;5.424;2023-06-22T02:26:27;101939.53;;;15.91;98.79
71976;BME280;68326;52.124;5.424;2023-06-22T02:28:54;101935.81;;;15.95;99.21
71976;BME280;68326;52.124;5.424;2023-06-22T02:31:20;101943.19;;;15.88;97.70
71976;BME280;68326;52.124;5.424;2023-06-22T02:33:47;101946.97;;;15.83;97.38
71976;BME280;68326;52.124;5.424;2023-06-22T02:36:14;101950.63;;;15.80;98.46
71976;BME280;68326;52.124;5.424;2023-06-22T02:38:41;101940.38;;;15.76;98.60
71976;BME280;68326;52.124;5.424;2023-06-22T02:41:15;101945.84;;;15.71;98.17
71976;BME280;68326;52.124;5.424;2023-06-22T02:43:47;101942.47;;;15.69;98.54
71976;BME280;68326;52.124;5.424;2023-06-22T02:46:14;101941.63;;;15.68;99.04
71976;BME280;68326;52.124;5.424;2023-06-22T02:48:40;101933.81;;;15.67;98.32
71976;BME280;68326;52.124;5.424;2023-06-22T02:51:07;101938.06;;;15.69;98.45
71976;BME280;68326;52.124;5.424;2023-06-22T02:53:34;101932.72;;;15.71;98.46
71976;BME280;68326;52.124;5.424;2023-06-22T02:56:02;101935.59;;;15.66;98.58
71976;BME280;68326;52.124;5.424;2023-06-22T02:58:32;101929.75;;;15.61;98.00
71976;BME280;68326;52.124;5.424;2023-06-22T03:01:05;101940.41;;;15.58;98.38
71976;BME280;68326;52.124;5.424;2023-06-22T03:03:32;101929.16;;;15.56;98.04
71976;BME280;68326;52.124;5.424;2023-06-22T03:05:58;101932.69;;;15.55;97.99
71976;BME280;68326;52.124;5.424;2023-06-22T03:08:27;101931.94;;;15.53;98.15
71976;BME280;68326;52.124;5.424;2023-06-22T03:10:54;101932.19;;;15.48;98.78
71976;BME280;68326;52.124;5.424;2023-06-22T03:13:20;101941.91;;;15.46;98.44
71976;BME280;68326;52.124;5.424;2023-06-22T03:15:47;101939.47;;;15.43;97.78
71976;BME280;68326;52.124;5.424;2023-06-22T03:18:13;101935.13;;;15.42;98.80
71976;BME280;68326;52.124;5.424;2023-06-22T03:20:42;101937.09;;;15.39;99.08
71976;BME280;68326;52.124;5.424;2023-06-22T03:23:08;101938.19;;;15.35;99.34
71976;BME280;68326;52.124;5.424;2023-06-22T03:25:35;101933.91;;;15.32;99.30
71976;BME280;68326;52.124;5.424;2023-06-22T03:28:02;101934.03;;;15.31;98.83
71976;BME280;68326;52.124;5.424;2023-06-22T03:30:28;101929.53;;;15.33;99.08
71976;BME280;68326;52.124;5.424;2023-06-22T03:32:55;101914.41;;;15.38;98.64
71976;BME280;68326;52.124;5.424;2023-06-22T03:35:22;101915.84;;;15.43;99.91
71976;BME280;68326;52.124;5.424;2023-06-22T03:37:49;101913.16;;;15.45;99.71
71976;BME280;68326;52.124;5.424;2023-06-22T03:40:15;101905.88;;;15.50;100.00
71976;BME280;68326;52.124;5.424;2023-06-22T03:42:42;101910.19;;;15.51;99.93
71976;BME280;68326;52.124;5.424;2023-06-22T03:45:09;101915.44;;;15.51;99.49
71976;BME280;68326;52.124;5.424;2023-06-22T03:47:35;101917.97;;;15.53;99.89
71976;BME280;68326;52.124;5.424;2023-06-22T03:50:02;101911.38;;;15.45;98.64
71976;BME280;68326;52.124;5.424;2023-06-22T03:52:30;101906.47;;;15.39;98.99
71976;BME280;68326;52.124;5.424;2023-06-22T03:54:56;101908.91;;;15.42;99.63
71976;BME280;68326;52.124;5.424;2023-06-22T03:57:23;101906.66;;;15.52;100.00
71976;BME280;68326;52.124;5.424;2023-06-22T03:59:50;101908.59;;;15.64;100.00
71976;BME280;68326;52.124;5.424;2023-06-22T04:02:16;101901.00;;;15.76;100.00
71976;BME280;68326;52.124;5.424;2023-06-22T04:04:43;101905.41;;;15.91;100.00
71976;BME280;68326;52.124;5.424;2023-06-22T04:07:10;101906.84;;;15.97;100.00
71976;BME280;68326;52.124;5.424;2023-06-22T04:09:37;101901.25;;;16.03;100.00
71976;BME280;68326;52.124;5.424;2023-06-22T04:12:04;101897.25;;;16.12;100.00
71976;BME280;68326;52.124;5.424;2023-06-22T04:14:31;101892.56;;;16.17;100.00
71976;BME280;68326;52.124;5.424;2023-06-22T04:16:58;101898.25;;;16.25;100.00
71976;BME280;68326;52.124;5.424;2023-06-22T04:19:24;101886.53;;;16.30;100.00
71976;BME280;68326;52.124;5.424;2023-06-22T04:21:51;101899.34;;;16.37;100.00
71976;BME280;68326;52.124;5.424;2023-06-22T04:24:18;101886.84;;;16.40;100.00
71976;BME280;68326;52.124;5.424;2023-06-22T04:26:44;101899.47;;;16.49;100.00
71976;BME280;68326;52.124;5.424;2023-06-22T04:29:13;101894.41;;;16.61;100.00
71976;BME280;68326;52.124;5.424;2023-06-22T04:31:40;101892.25;;;16.67;99.99
71976;BME280;68326;52.124;5.424;2023-06-22T04:34:07;101892.94;;;16.71;100.00
71976;BME280;68326;52.124;5.424;2023-06-22T04:36:39;101892.56;;;16.77;100.00
71976;BME280;68326;52.124;5.424;2023-06-22T04:39:11;101884.25;;;16.85;99.67
71976;BME280;68326;52.124;5.424;2023-06-22T04:41:38;101885.75;;;16.89;99.43
71976;BME280;68326;52.124;5.424;2023-06-22T04:44:18;101887.47;;;17.04;99.60
71976;BME280;68326;52.124;5.424;2023-06-22T04:46:54;101888.69;;;17.13;99.74
71976;BME280;68326;52.124;5.424;2023-06-22T04:49:27;101886.41;;;17.21;99.55
71976;BME280;68326;52.124;5.424;2023-06-22T04:52:02;101886.78;;;17.29;98.59
71976;BME280;68326;52.124;5.424;2023-06-22T04:54:29;101887.06;;;17.39;99.35
71976;BME280;68326;52.124;5.424;2023-06-22T04:56:55;101894.38;;;17.48;99.04
71976;BME280;68326;52.124;5.424;2023-06-22T04:59:29;101905.19;;;17.58;98.71
71976;BME280;68326;52.124;5.424;2023-06-22T05:01:57;101900.56;;;17.62;97.60
71976;BME280;68326;52.124;5.424;2023-06-22T05:04:25;101893.00;;;17.70;97.77
71976;BME280;68326;52.124;5.424;2023-06-22T05:06:52;101893.50;;;17.77;97.53
71976;BME280;68326;52.124;5.424;2023-06-22T05:09:19;101901.94;;;17.82;96.82
71976;BME280;68326;52.124;5.424;2023-06-22T05:11:46;101901.56;;;17.88;97.05
71976;BME280;68326;52.124;5.424;2023-06-22T05:14:13;101893.38;;;17.92;96.63
71976;BME280;68326;52.124;5.424;2023-06-22T05:16:41;101895.50;;;18.00;95.75
71976;BME280;68326;52.124;5.424;2023-06-22T05:19:08;101895.31;;;18.03;96.09
71976;BME280;68326;52.124;5.424;2023-06-22T05:21:35;101895.75;;;18.10;95.85
71976;BME280;68326;52.124;5.424;2023-06-22T05:24:02;101896.31;;;18.15;95.80
71976;BME280;68326;52.124;5.424;2023-06-22T05:26:30;101891.34;;;18.23;95.93
71976;BME280;68326;52.124;5.424;2023-06-22T05:28:57;101896.53;;;18.25;95.39
71976;BME280;68326;52.124;5.424;2023-06-22T05:31:24;101895.28;;;18.30;95.19
71976;BME280;68326;52.124;5.424;2023-06-22T05:33:52;101899.50;;;18.33;95.61
71976;BME280;68326;52.124;5.424;2023-06-22T05:36:19;101895.72;;;18.37;95.28
71976;BME280;68326;52.124;5.424;2023-06-22T05:38:47;101905.44;;;18.49;95.97
71976;BME280;68326;52.124;5.424;2023-06-22T05:41:14;101897.88;;;18.58;94.81
71976;BME280;68326;52.124;5.424;2023-06-22T05:43:40;101898.50;;;18.61;95.04
71976;BME280;68326;52.124;5.424;2023-06-22T05:46:07;101899.78;;;18.68;94.91
71976;BME280;68326;52.124;5.424;2023-06-22T05:48:33;101909.78;;;18.76;95.35
71976;BME280;68326;52.124;5.424;2023-06-22T05:51:00;101903.19;;;18.83;96.16
71976;BME280;68326;52.124;5.424;2023-06-22T05:53:26;101902.25;;;18.84;94.54
71976;BME280;68326;52.124;5.424;2023-06-22T05:55:53;101899.28;;;18.89;94.56
71976;BME280;68326;52.124;5.424;2023-06-22T05:58:20;101896.34;;;18.93;94.36
71976;BME280;68326;52.124;5.424;2023-06-22T06:00:46;101911.00;;;19.23;90.13
71976;BME280;68326;52.124;5.424;2023-06-22T06:03:13;101909.66;;;19.54;92.13
71976;BME280;68326;52.124;5.424;2023-06-22T06:05:43;101913.50;;;19.87;89.37
71976;BME280;68326;52.124;5.424;2023-06-22T06:08:11;101903.28;;;20.07;87.50
71976;BME280;68326;52.124;5.424;2023-06-22T06:10:38;101897.88;;;20.08;87.73
71976;BME280;68326;52.124;5.424;2023-06-22T06:13:05;101908.69;;;20.16;84.79
71976;BME280;68326;52.124;5.424;2023-06-22T06:15:32;101906.00;;;20.29;85.77
71976;BME280;68326;52.124;5.424;2023-06-22T06:17:59;101899.22;;;20.49;84.05
71976;BME280;68326;52.124;5.424;2023-06-22T06:20:26;101890.16;;;20.76;83.11
71976;BME280;68326;52.124;5.424;2023-06-22T06:22:55;101886.56;;;20.88;83.43
71976;BME280;68326;52.124;5.424;2023-06-22T06:25:22;101884.28;;;20.84;83.10
71976;BME280;68326;52.124;5.424;2023-06-22T06:27:51;101886.09;;;20.94;83.62
71976;BME280;68326;52.124;5.424;2023-06-22T06:30:18;101891.88;;;21.00;83.06
71976;BME280;68326;52.124;5.424;2023-06-22T06:32:46;101888.16;;;21.13;81.11
71976;BME280;68326;52.124;5.424;2023-06-22T06:35:14;101885.38;;;21.26;80.11
71976;BME280;68326;52.124;5.424;2023-06-22T06:37:44;101885.72;;;21.33;80.19
71976;BME280;68326;52.124;5.424;2023-06-22T06:40:12;101869.94;;;21.31;80.91
71976;BME280;68326;52.124;5.424;2023-06-22T06:42:46;101879.50;;;21.45;81.61
71976;BME280;68326;52.124;5.424;2023-06-22T06:45:18;101875.97;;;21.56;80.16
71976;BME280;68326;52.124;5.424;2023-06-22T06:47:46;101876.56;;;21.60;81.29
71976;BME280;68326;52.124;5.424;2023-06-22T06:50:12;101870.53;;;21.69;80.41
71976;BME280;68326;52.124;5.424;2023-06-22T06:52:39;101864.34;;;21.79;78.32
71976;BME280;68326;52.124;5.424;2023-06-22T06:55:06;101870.69;;;21.88;79.33
71976;BME280;68326;52.124;5.424;2023-06-22T06:57:35;101873.31;;;21.99;78.40
71976;BME280;68326;52.124;5.424;2023-06-22T07:00:01;101869.31;;;22.05;79.35
71976;BME280;68326;52.124;5.424;2023-06-22T07:02:28;101867.88;;;22.01;77.25
71976;BME280;68326;52.124;5.424;2023-06-22T07:04:55;101865.88;;;21.93;79.39
71976;BME280;68326;52.124;5.424;2023-06-22T07:07:21;101869.81;;;21.99;78.40
71976;BME280;68326;52.124;5.424;2023-06-22T07:09:48;101867.53;;;21.94;77.25
71976;BME280;68326;52.124;5.424;2023-06-22T07:12:14;101864.06;;;21.94;77.04
71976;BME280;68326;52.124;5.424;2023-06-22T07:14:41;101858.63;;;21.95;77.95
71976;BME280;68326;52.124;5.424;2023-06-22T07:17:08;101863.88;;;22.07;77.53
71976;BME280;68326;52.124;5.424;2023-06-22T07:19:34;101865.44;;;22.09;76.64
71976;BME280;68326;52.124;5.424;2023-06-22T07:22:01;101859.34;;;22.18;75.37
71976;BME280;68326;52.124;5.424;2023-06-22T07:24:27;101861.75;;;22.22;75.90
71976;BME280;68326;52.124;5.424;2023-06-22T07:26:54;101872.22;;;22.34;76.37
71976;BME280;68326;52.124;5.424;2023-06-22T07:29:20;101864.91;;;22.48;73.98
71976;BME280;68326;52.124;5.424;2023-06-22T07:31:49;101870.06;;;22.49;73.38
71976;BME280;68326;52.124;5.424;2023-06-22T07:34:18;101871.09;;;22.58;74.75
71976;BME280;68326;52.124;5.424;2023-06-22T07:36:45;101866.56;;;22.70;74.73
71976;BME280;68326;52.124;5.424;2023-06-22T07:39:12;101858.81;;;22.88;74.88
71976;BME280;68326;52.124;5.424;2023-06-22T07:41:39;101852.59;;;22.98;72.10
71976;BME280;68326;52.124;5.424;2023-06-22T07:44:07;101852.28;;;22.92;73.09
71976;BME280;68326;52.124;5.424;2023-06-22T07:46:33;101848.91;;;22.90;71.77
71976;BME280;68326;52.124;5.424;2023-06-22T07:49:00;101841.25;;;22.96;71.11
71976;BME280;68326;52.124;5.424;2023-06-22T07:51:27;101831.56;;;23.07;71.28
71976;BME280;68326;52.124;5.424;2023-06-22T07:53:54;101835.44;;;23.03;71.17
71976;BME280;68326;52.124;5.424;2023-06-22T07:56:20;101835.25;;;22.94;71.96
71976;BME280;68326;52.124;5.424;2023-06-22T07:58:47;101836.06;;;22.95;71.99
71976;BME280;68326;52.124;5.424;2023-06-22T08:01:14;101829.53;;;22.99;70.32
71976;BME280;68326;52.124;5.424;2023-06-22T08:03:41;101833.91;;;23.10;71.02
71976;BME280;68326;52.124;5.424;2023-06-22T08:06:08;101822.09;;;23.24;70.14
71976;BME280;68326;52.124;5.424;2023-06-22T08:08:36;101827.97;;;23.27;71.61
71976;BME280;68326;52.124;5.424;2023-06-22T08:11:02;101825.16;;;23.29;69.86
71976;BME280;68326;52.124;5.424;2023-06-22T08:13:29;101815.28;;;23.40;68.48
71976;BME280;68326;52.124;5.424;2023-06-22T08:15:56;101816.28;;;23.59;68.47
71976;BME280;68326;52.124;5.424;2023-06-22T08:18:22;101808.31;;;23.69;69.20
71976;BME280;68326;52.124;5.424;2023-06-22T08:20:49;101809.19;;;23.79;68.85
71976;BME280;68326;52.124;5.424;2023-06-22T08:23:16;101808.50;;;23.87;67.85
71976;BME280;68326;52.124;5.424;2023-06-22T08:25:43;101803.56;;;23.92;68.58
71976;BME280;68326;52.124;5.424;2023-06-22T08:28:09;101797.25;;;23.93;68.26
71976;BME280;68326;52.124;5.424;2023-06-22T08:30:36;101786.06;;;23.99;68.24
71976;BME280;68326;52.124;5.424;2023-06-22T08:33:03;101782.84;;;24.05;66.21
71976;BME280;68326;52.124;5.424;2023-06-22T08:35:29;101781.03;;;24.06;65.90
71976;BME280;68326;52.124;5.424;2023-06-22T08:37:56;101775.28;;;24.10;64.70
71976;BME280;68326;52.124;5.424;2023-06-22T08:40:24;101773.63;;;23.99;63.54
71976;BME280;68326;52.124;5.424;2023-06-22T08:42:51;101773.19;;;24.04;65.43
71976;BME280;68326;52.124;5.424;2023-06-22T08:45:18;101770.50;;;24.14;65.64
71976;BME280;68326;52.124;5.424;2023-06-22T08:47:44;101766.00;;;24.24;64.75
71976;BME280;68326;52.124;5.424;2023-06-22T08:50:11;101767.94;;;24.32;64.06
71976;BME280;68326;52.124;5.424;2023-06-22T08:52:39;101764.81;;;24.46;63.24
71976;BME280;68326;52.124;5.424;2023-06-22T08:55:08;101761.88;;;24.59;61.53
71976;BME280;68326;52.124;5.424;2023-06-22T08:57:35;101771.75;;;24.67;61.21
71976;BME280;68326;52.124;5.424;2023-06-22T09:00:08;101760.31;;;24.84;62.04
71976;BME280;68326;52.124;5.424;2023-06-22T09:02:41;101766.91;;;24.80;62.56
71976;BME280;68326;52.124;5.424;2023-06-22T09:05:08;101769.16;;;24.85;61.38
71976;BME280;68326;52.124;5.424;2023-06-22T09:07:35;101770.28;;;24.82;60.86
71976;BME280;68326;52.124;5.424;2023-06-22T09:10:02;101763.16;;;24.82;61.46
71976;BME280;68326;52.124;5.424;2023-06-22T09:12:31;101767.34;;;24.85;60.11
71976;BME280;68326;52.124;5.424;2023-06-22T09:15:00;101764.06;;;24.91;56.85
71976;BME280;68326;52.124;5.424;2023-06-22T09:17:27;101757.59;;;24.94;56.03
71976;BME280;68326;52.124;5.424;2023-06-22T09:19:53;101759.59;;;24.92;56.15
71976;BME280;68326;52.124;5.424;2023-06-22T09:22:20;101757.75;;;24.92;56.62
71976;BME280;68326;52.124;5.424;2023-06-22T09:24:47;101761.69;;;24.88;58.90
71976;BME280;68326;52.124;5.424;2023-06-22T09:27:13;101763.59;;;24.78;57.09
71976;BME280;68326;52.124;5.424;2023-06-22T09:29:40;101762.00;;;24.85;59.49
71976;BME280;68326;52.124;5.424;2023-06-22T09:32:07;101763.84;;;25.02;58.40
71976;BME280;68326;52.124;5.424;2023-06-22T09:34:33;101762.22;;;25.19;58.99
71976;BME280;68326;52.124;5.424;2023-06-22T09:37:00;101757.22;;;25.34;58.77
71976;BME280;68326;52.124;5.424;2023-06-22T09:39:29;101760.06;;;25.51;58.28
71976;BME280;68326;52.124;5.424;2023-06-22T09:42:00;101746.19;;;25.65;55.12
71976;BME280;68326;52.124;5.424;2023-06-22T09:44:27;101754.75;;;25.77;56.41
71976;BME280;68326;52.124;5.424;2023-06-22T09:46:53;101752.03;;;25.69;55.55
71976;BME280;68326;52.124;5.424;2023-06-22T09:49:20;101747.00;;;25.66;57.41
71976;BME280;68326;52.124;5.424;2023-06-22T09:52:03;101746.94;;;25.57;57.58
71976;BME280;68326;52.124;5.424;2023-06-22T09:54:30;101749.16;;;25.44;59.70
71976;BME280;68326;52.124;5.424;2023-06-22T09:56:56;101740.09;;;25.37;58.58
71976;BME280;68326;52.124;5.424;2023-06-22T09:59:22;101743.53;;;25.29;58.76
71976;BME280;68326;52.124;5.424;2023-06-22T10:01:49;101742.63;;;25.20;58.54
71976;BME280;68326;52.124;5.424;2023-06-22T10:04:15;101745.75;;;25.06;58.18
71976;BME280;68326;52.124;5.424;2023-06-22T10:06:42;101747.97;;;24.93;60.25
71976;BME280;68326;52.124;5.424;2023-06-22T10:09:09;101748.13;;;24.81;58.61
71976;BME280;68326;52.124;5.424;2023-06-22T10:11:35;101753.13;;;24.67;60.32
71976;BME280;68326;52.124;5.424;2023-06-22T10:14:03;101749.66;;;24.56;60.89
71976;BME280;68326;52.124;5.424;2023-06-22T10:16:31;101744.38;;;24.47;60.65
71976;BME280;68326;52.124;5.424;2023-06-22T10:18:58;101746.09;;;24.38;61.76
71976;BME280;68326;52.124;5.424;2023-06-22T10:21:25;101743.00;;;24.33;60.17
71976;BME280;68326;52.124;5.424;2023-06-22T10:23:53;101737.44;;;24.26;60.09
71976;BME280;68326;52.124;5.424;2023-06-22T10:26:20;101734.91;;;24.25;59.47
71976;BME280;68326;52.124;5.424;2023-06-22T10:28:46;101743.50;;;24.18;59.04
71976;BME280;68326;52.124;5.424;2023-06-22T10:31:13;101741.41;;;24.12;61.40
71976;BME280;68326;52.124;5.424;2023-06-22T10:33:39;101750.22;;;24.03;60.62
71976;BME280;68326;52.124;5.424;2023-06-22T10:36:07;101742.56;;;24.00;61.21
71976;BME280;68326;52.124;5.424;2023-06-22T10:38:34;101749.97;;;23.96;59.85
71976;BME280;68326;52.124;5.424;2023-06-22T10:41:00;101748.16;;;23.87;62.27
71976;BME280;68326;52.124;5.424;2023-06-22T10:43:27;101750.00;;;23.87;60.43
71976;BME280;68326;52.124;5.424;2023-06-22T10:45:54;101743.97;;;23.85;59.70
71976;BME280;68326;52.124;5.424;2023-06-22T10:48:20;101742.16;;;23.85;60.14
71976;BME280;68326;52.124;5.424;2023-06-22T10:50:47;101743.00;;;23.86;60.13
71976;BME280;68326;52.124;5.424;2023-06-22T10:53:13;101748.31;;;23.86;59.65
71976;BME280;68326;52.124;5.424;2023-06-22T10:55:40;101750.13;;;23.85;59.94
71976;BME280;68326;52.124;5.424;2023-06-22T10:58:12;101745.66;;;23.86;60.17
71976;BME280;68326;52.124;5.424;2023-06-22T11:00:39;101750.97;;;23.86;60.35
71976;BME280;68326;52.124;5.424;2023-06-22T11:03:05;101751.94;;;23.94;60.79
71976;BME280;68326;52.124;5.424;2023-06-22T11:05:32;101744.50;;;23.98;62.17
71976;BME280;68326;52.124;5.424;2023-06-22T11:07:58;101738.91;;;24.01;61.10
71976;BME280;68326;52.124;5.424;2023-06-22T11:10:25;101734.84;;;24.07;61.01
71976;BME280;68326;52.124;5.424;2023-06-22T11:12:53;101733.25;;;24.14;59.88
71976;BME280;68326;52.124;5.424;2023-06-22T11:15:21;101732.84;;;24.18;59.64
71976;BME280;68326;52.124;5.424;2023-06-22T11:17:48;101729.59;;;24.25;60.20
71976;BME280;68326;52.124;5.424;2023-06-22T11:20:14;101729.88;;;24.31;59.67
71976;BME280;68326;52.124;5.424;2023-06-22T11:22:41;101729.44;;;24.36;60.68
71976;BME280;68326;52.124;5.424;2023-06-22T11:25:08;101728.16;;;24.40;59.29
71976;BME280;68326;52.124;5.424;2023-06-22T11:27:35;101726.00;;;24.43;61.09
71976;BME280;68326;52.124;5.424;2023-06-22T11:30:02;101727.28;;;24.49;59.09
71976;BME280;68326;52.124;5.424;2023-06-22T11:32:29;101719.69;;;24.54;58.76
71976;BME280;68326;52.124;5.424;2023-06-22T11:34:56;101723.75;;;24.58;58.82
71976;BME280;68326;52.124;5.424;2023-06-22T11:37:22;101718.59;;;24.57;59.10
71976;BME280;68326;52.124;5.424;2023-06-22T11:39:49;101714.94;;;24.58;60.40
71976;BME280;68326;52.124;5.424;2023-06-22T11:42:31;101707.78;;;24.58;60.60
71976;BME280;68326;52.124;5.424;2023-06-22T11:44:58;101698.69;;;24.61;62.09
71976;BME280;68326;52.124;5.424;2023-06-22T11:47:25;101695.69;;;24.64;62.11
71976;BME280;68326;52.124;5.424;2023-06-22T11:49:51;101699.88;;;24.67;61.21
71976;BME280;68326;52.124;5.424;2023-06-22T11:52:18;101691.75;;;24.68;62.57
71976;BME280;68326;52.124;5.424;2023-06-22T11:54:45;101692.59;;;24.69;62.20
71976;BME280;68326;52.124;5.424;2023-06-22T11:57:12;101695.09;;;24.70;62.68
71976;BME280;68326;52.124;5.424;2023-06-22T11:59:39;101694.97;;;24.72;63.19
71976;BME280;68326;52.124;5.424;2023-06-22T12:02:05;101697.47;;;24.73;60.99
71976;BME280;68326;52.124;5.424;2023-06-22T12:04:33;101688.78;;;24.71;61.74
71976;BME280;68326;52.124;5.424;2023-06-22T12:07:00;101694.41;;;24.68;61.47
71976;BME280;68326;52.124;5.424;2023-06-22T12:09:26;101689.81;;;24.60;60.20
71976;BME280;68326;52.124;5.424;2023-06-22T12:11:53;101690.00;;;24.59;60.38
71976;BME280;68326;52.124;5.424;2023-06-22T12:14:19;101685.38;;;24.61;61.36
71976;BME280;68326;52.124;5.424;2023-06-22T12:16:46;101684.13;;;24.55;61.83
71976;BME280;68326;52.124;5.424;2023-06-22T12:19:12;101683.56;;;24.52;61.38
71976;BME280;68326;52.124;5.424;2023-06-22T12:21:39;101690.03;;;24.49;61.81
71976;BME280;68326;52.124;5.424;2023-06-22T12:24:07;101683.44;;;24.43;64.05
71976;BME280;68326;52.124;5.424;2023-06-22T12:26:33;101680.69;;;24.35;63.75
71976;BME280;68326;52.124;5.424;2023-06-22T12:29:00;101681.28;;;24.29;66.90
71976;BME280;68326;52.124;5.424;2023-06-22T12:31:27;101686.94;;;24.16;68.00
71976;BME280;68326;52.124;5.424;2023-06-22T12:33:54;101675.06;;;24.11;67.40
71976;BME280;68326;52.124;5.424;2023-06-22T12:36:20;101674.81;;;24.04;70.78
71976;BME280;68326;52.124;5.424;2023-06-22T12:38:47;101678.75;;;23.90;70.91
71976;BME280;68326;52.124;5.424;2023-06-22T12:41:13;101672.75;;;23.88;69.75
71976;BME280;68326;52.124;5.424;2023-06-22T12:43:40;101671.50;;;23.83;70.19
71976;BME280;68326;52.124;5.424;2023-06-22T12:46:07;101670.53;;;23.74;68.59
71976;BME280;68326;52.124;5.424;2023-06-22T12:48:33;101672.63;;;23.70;70.33
71976;BME280;68326;52.124;5.424;2023-06-22T12:51:00;101665.09;;;23.66;71.25
71976;BME280;68326;52.124;5.424;2023-06-22T12:53:27;101658.50;;;23.60;69.74
71976;BME280;68326;52.124;5.424;2023-06-22T12:55:53;101660.78;;;23.55;70.08
71976;BME280;68326;52.124;5.424;2023-06-22T12:58:20;101661.59;;;23.55;72.31